sensor_id;sensor_type;location;lat;lon;timestamp;pressure;altitude;pressure_sealevel;temperature;humidity
22333;BME280;11334;36.986;-121.936;2023-01-26T00:01:29;102113.91;;;17.01;45.98
22333;BME280;11334;36.986;-121.936;2023-01-26T00:03:56;102112.56;;;16.97;46.48
22333;BME280;11334;36.986;-121.936;2023-01-26T00:06:22;102111.56;;;16.98;47.35
22333;BME280;11334;36.986;-121.936;2023-01-26T00:08:51;102110.88;;;16.88;47.54
22333;BME280;11334;36.986;-121.936;2023-01-26T00:11:20;102119.06;;;16.94;47.61
22333;BME280;11334;36.986;-121.936;2023-01-26T00:13:52;102113.91;;;16.93;48.15
22333;BME280;11334;36.986;-121.936;2023-01-26T00:16:18;102123.94;;;16.91;48.00
22333;BME280;11334;36.986;-121.936;2023-01-26T00:18:45;102124.09;;;16.89;48.24
22333;BME280;11334;36.986;-121.936;2023-01-26T00:21:14;102122.41;;;16.88;48.58
22333;BME280;11334;36.986;-121.936;2023-01-26T00:23:40;102121.75;;;16.86;48.58
22333;BME280;11334;36.986;-121.936;2023-01-26T00:26:09;102099.63;;;16.76;48.76
22333;BME280;11334;36.986;-121.936;2023-01-26T00:28:36;102108.84;;;16.82;48.75
22333;BME280;11334;36.986;-121.936;2023-01-26T00:31:09;102109.66;;;16.82;48.84
22333;BME280;11334;36.986;-121.936;2023-01-26T00:33:37;102100.97;;;16.80;49.10
22333;BME280;11334;36.986;-121.936;2023-01-26T00:36:04;102093.59;;;16.75;49.24
22333;BME280;11334;36.986;-121.936;2023-01-26T00:38:30;102111.38;;;16.83;48.99
22333;BME280;11334;36.986;-121.936;2023-01-26T00:40:56;102109.66;;;16.82;49.29
22333;BME280;11334;36.986;-121.936;2023-01-26T00:43:23;102105.66;;;16.78;49.77
22333;BME280;11334;36.986;-121.936;2023-01-26T00:45:49;102108.81;;;16.74;50.36
22333;BME280;11334;36.986;-121.936;2023-01-26T00:48:15;102084.03;;;16.64;50.91
22333;BME280;11334;36.986;-121.936;2023-01-26T00:50:42;102093.25;;;16.70;50.37
22333;BME280;11334;36.986;-121.936;2023-01-26T00:53:08;102074.81;;;16.59;50.42
22333;BME280;11334;36.986;-121.936;2023-01-26T00:55:35;102093.56;;;16.67;50.50
22333;BME280;11334;36.986;-121.936;2023-01-26T00:58:03;102103.25;;;16.68;50.44
22333;BME280;11334;36.986;-121.936;2023-01-26T01:00:31;102103.09;;;16.61;50.51
22333;BME280;11334;36.986;-121.936;2023-01-26T01:02:58;102090.88;;;16.59;50.97
22333;BME280;11334;36.986;-121.936;2023-01-26T01:05:26;102106.56;;;16.54;51.28
22333;BME280;11334;36.986;-121.936;2023-01-26T01:07:53;102090.78;;;16.43;51.76
22333;BME280;11334;36.986;-121.936;2023-01-26T01:10:19;102093.47;;;16.43;51.41
22333;BME280;11334;36.986;-121.936;2023-01-26T01:12:46;102113.53;;;16.39;52.06
22333;BME280;11334;36.986;-121.936;2023-01-26T01:15:12;102099.41;;;16.21;52.13
22333;BME280;11334;36.986;-121.936;2023-01-26T01:17:38;102113.28;;;16.25;52.42
22333;BME280;11334;36.986;-121.936;2023-01-26T01:20:06;102116.44;;;16.20;52.77
22333;BME280;11334;36.986;-121.936;2023-01-26T01:22:35;102118.75;;;16.15;53.10
22333;BME280;11334;36.986;-121.936;2023-01-26T01:25:01;102117.19;;;16.13;52.88
22333;BME280;11334;36.986;-121.936;2023-01-26T01:27:28;102123.34;;;16.06;53.30
22333;BME280;11334;36.986;-121.936;2023-01-26T01:29:54;102126.81;;;15.98;53.73
22333;BME280;11334;36.986;-121.936;2023-01-26T01:32:20;102111.03;;;15.87;53.79
22333;BME280;11334;36.986;-121.936;2023-01-26T01:34:47;102135.59;;;15.91;54.29
22333;BME280;11334;36.986;-121.936;2023-01-26T01:37:14;102133.91;;;15.82;54.56
22333;BME280;11334;36.986;-121.936;2023-01-26T01:39:41;102132.00;;;15.75;55.50
22333;BME280;11334;36.986;-121.936;2023-01-26T01:42:08;102134.44;;;15.68;56.44
22333;BME280;11334;36.986;-121.936;2023-01-26T01:44:38;102135.78;;;15.64;56.28
22333;BME280;11334;36.986;-121.936;2023-01-26T01:47:21;102131.66;;;15.52;56.90
22333;BME280;11334;36.986;-121.936;2023-01-26T01:49:51;102127.91;;;15.46;57.10
22333;BME280;11334;36.986;-121.936;2023-01-26T01:52:28;102125.31;;;15.36;57.09
22333;BME280;11334;36.986;-121.936;2023-01-26T01:57:33;102144.25;;;15.25;58.25
22333;BME280;11334;36.986;-121.936;2023-01-26T02:00:12;102150.50;;;15.17;58.75
22333;BME280;11334;36.986;-121.936;2023-01-26T02:02:40;102154.78;;;15.10;58.78
22333;BME280;11334;36.986;-121.936;2023-01-26T02:05:25;102166.84;;;15.04;59.05
22333;BME280;11334;36.986;-121.936;2023-01-26T02:07:54;102166.25;;;14.93;59.13
22333;BME280;11334;36.986;-121.936;2023-01-26T02:10:21;102163.19;;;14.88;59.53
22333;BME280;11334;36.986;-121.936;2023-01-26T02:12:52;102139.69;;;14.65;59.86
22333;BME280;11334;36.986;-121.936;2023-01-26T02:15:22;102150.09;;;14.68;59.90
22333;BME280;11334;36.986;-121.936;2023-01-26T02:17:51;102172.59;;;14.65;60.21
22333;BME280;11334;36.986;-121.936;2023-01-26T02:23:45;102163.53;;;14.49;60.97
22333;BME280;11334;36.986;-121.936;2023-01-26T02:28:23;102121.84;;;14.12;60.93
22333;BME280;11334;36.986;-121.936;2023-01-26T02:30:51;102169.78;;;14.31;60.93
22333;BME280;11334;36.986;-121.936;2023-01-26T02:33:19;102153.13;;;14.20;61.58
22333;BME280;11334;36.986;-121.936;2023-01-26T02:35:46;102179.63;;;14.21;61.57
22333;BME280;11334;36.986;-121.936;2023-01-26T02:38:12;102165.94;;;14.07;62.12
22333;BME280;11334;36.986;-121.936;2023-01-26T02:40:45;102171.13;;;13.99;62.38
22333;BME280;11334;36.986;-121.936;2023-01-26T02:43:13;102182.19;;;13.94;62.03
22333;BME280;11334;36.986;-121.936;2023-01-26T02:45:40;102185.41;;;13.88;62.17
22333;BME280;11334;36.986;-121.936;2023-01-26T02:48:07;102182.06;;;13.87;62.08
22333;BME280;11334;36.986;-121.936;2023-01-26T02:50:33;102187.94;;;13.81;62.24
22333;BME280;11334;36.986;-121.936;2023-01-26T02:53:00;102185.16;;;13.73;62.62
22333;BME280;11334;36.986;-121.936;2023-01-26T02:55:27;102192.72;;;13.68;63.11
22333;BME280;11334;36.986;-121.936;2023-01-26T02:57:56;102180.81;;;13.62;62.93
22333;BME280;11334;36.986;-121.936;2023-01-26T03:00:31;102183.06;;;13.57;62.58
22333;BME280;11334;36.986;-121.936;2023-01-26T03:03:01;102179.44;;;13.40;63.15
22333;BME280;11334;36.986;-121.936;2023-01-26T03:05:28;102199.44;;;13.44;63.44
22333;BME280;11334;36.986;-121.936;2023-01-26T03:07:54;102199.03;;;13.39;63.23
22333;BME280;11334;36.986;-121.936;2023-01-26T03:10:20;102200.03;;;13.38;63.31
22333;BME280;11334;36.986;-121.936;2023-01-26T03:12:49;102207.31;;;13.36;62.77
22333;BME280;11334;36.986;-121.936;2023-01-26T03:15:16;102202.38;;;13.31;62.82
22333;BME280;11334;36.986;-121.936;2023-01-26T03:18:03;102202.13;;;13.25;63.31
22333;BME280;11334;36.986;-121.936;2023-01-26T03:20:48;102209.25;;;13.15;63.77
22333;BME280;11334;36.986;-121.936;2023-01-26T03:23:32;102206.59;;;13.15;63.58
22333;BME280;11334;36.986;-121.936;2023-01-26T03:26:17;102214.56;;;13.15;63.23
22333;BME280;11334;36.986;-121.936;2023-01-26T03:29:01;102220.69;;;13.06;64.12
22333;BME280;11334;36.986;-121.936;2023-01-26T03:31:27;102212.72;;;13.06;63.47
22333;BME280;11334;36.986;-121.936;2023-01-26T03:33:53;102219.75;;;13.07;63.57
22333;BME280;11334;36.986;-121.936;2023-01-26T03:36:19;102222.94;;;13.01;63.60
22333;BME280;11334;36.986;-121.936;2023-01-26T03:38:46;102216.59;;;12.84;64.04
22333;BME280;11334;36.986;-121.936;2023-01-26T03:41:12;102233.81;;;12.89;63.98
22333;BME280;11334;36.986;-121.936;2023-01-26T03:43:57;102220.06;;;12.84;63.43
22333;BME280;11334;36.986;-121.936;2023-01-26T03:46:41;102225.97;;;12.88;63.90
22333;BME280;11334;36.986;-121.936;2023-01-26T03:49:25;102236.88;;;12.85;63.92
22333;BME280;11334;36.986;-121.936;2023-01-26T03:52:13;102221.06;;;12.83;63.34
22333;BME280;11334;36.986;-121.936;2023-01-26T03:54:57;102227.09;;;12.85;63.60
22333;BME280;11334;36.986;-121.936;2023-01-26T03:57:41;102237.28;;;12.80;64.22
22333;BME280;11334;36.986;-121.936;2023-01-26T04:00:08;102243.72;;;12.78;63.81
22333;BME280;11334;36.986;-121.936;2023-01-26T04:02:34;102233.78;;;12.60;64.78
22333;BME280;11334;36.986;-121.936;2023-01-26T04:05:19;102256.63;;;12.62;65.28
22333;BME280;11334;36.986;-121.936;2023-01-26T04:08:05;102250.84;;;12.57;65.44
22333;BME280;11334;36.986;-121.936;2023-01-26T04:10:53;102257.88;;;12.58;65.29
22333;BME280;11334;36.986;-121.936;2023-01-26T04:13:21;102249.19;;;12.56;65.52
22333;BME280;11334;36.986;-121.936;2023-01-26T04:16:07;102252.13;;;12.53;65.62
22333;BME280;11334;36.986;-121.936;2023-01-26T04:18:52;102255.28;;;12.47;65.71
22333;BME280;11334;36.986;-121.936;2023-01-26T04:21:37;102226.69;;;12.31;65.68
22333;BME280;11334;36.986;-121.936;2023-01-26T04:24:04;102253.34;;;12.49;65.60
22333;BME280;11334;36.986;-121.936;2023-01-26T04:26:43;102256.84;;;12.50;65.71
22333;BME280;11334;36.986;-121.936;2023-01-26T04:29:11;102228.03;;;12.25;65.50
22333;BME280;11334;36.986;-121.936;2023-01-26T04:31:38;102261.25;;;12.40;66.30
22333;BME280;11334;36.986;-121.936;2023-01-26T04:34:06;102244.69;;;12.27;66.48
22333;BME280;11334;36.986;-121.936;2023-01-26T04:36:35;102262.91;;;12.31;66.72
22333;BME280;11334;36.986;-121.936;2023-01-26T04:39:02;102263.28;;;12.27;67.20
22333;BME280;11334;36.986;-121.936;2023-01-26T04:41:29;102262.75;;;12.13;67.48
22333;BME280;11334;36.986;-121.936;2023-01-26T04:43:56;102265.50;;;12.22;66.78
22333;BME280;11334;36.986;-121.936;2023-01-26T04:46:22;102276.00;;;12.24;66.54
22333;BME280;11334;36.986;-121.936;2023-01-26T04:48:49;102277.50;;;12.17;67.38
22333;BME280;11334;36.986;-121.936;2023-01-26T04:51:20;102273.91;;;12.07;67.81
22333;BME280;11334;36.986;-121.936;2023-01-26T04:53:47;102274.19;;;12.04;68.55
22333;BME280;11334;36.986;-121.936;2023-01-26T04:56:23;102264.28;;;12.06;67.36
22333;BME280;11334;36.986;-121.936;2023-01-26T04:58:50;102278.97;;;12.10;67.44
22333;BME280;11334;36.986;-121.936;2023-01-26T05:01:17;102280.69;;;12.11;67.07
22333;BME280;11334;36.986;-121.936;2023-01-26T05:03:44;102281.16;;;12.05;67.08
22333;BME280;11334;36.986;-121.936;2023-01-26T05:06:10;102277.28;;;12.09;67.01
22333;BME280;11334;36.986;-121.936;2023-01-26T05:08:37;102264.28;;;12.06;67.06
22333;BME280;11334;36.986;-121.936;2023-01-26T05:11:04;102266.59;;;11.99;66.87
22333;BME280;11334;36.986;-121.936;2023-01-26T05:13:30;102280.97;;;11.97;67.25
22333;BME280;11334;36.986;-121.936;2023-01-26T05:15:57;102280.41;;;11.94;67.49
22333;BME280;11334;36.986;-121.936;2023-01-26T05:18:23;102277.41;;;11.87;67.80
22333;BME280;11334;36.986;-121.936;2023-01-26T05:20:49;102269.44;;;11.87;68.09
22333;BME280;11334;36.986;-121.936;2023-01-26T05:23:15;102267.53;;;11.78;68.73
22333;BME280;11334;36.986;-121.936;2023-01-26T05:25:41;102258.63;;;11.79;68.97
22333;BME280;11334;36.986;-121.936;2023-01-26T05:28:08;102266.69;;;11.78;68.20
22333;BME280;11334;36.986;-121.936;2023-01-26T05:30:34;102272.00;;;11.78;68.71
22333;BME280;11334;36.986;-121.936;2023-01-26T05:33:05;102278.16;;;11.78;68.61
22333;BME280;11334;36.986;-121.936;2023-01-26T05:35:32;102277.56;;;11.75;68.33
22333;BME280;11334;36.986;-121.936;2023-01-26T05:37:58;102278.94;;;11.69;68.94
22333;BME280;11334;36.986;-121.936;2023-01-26T05:40:25;102275.66;;;11.66;68.95
22333;BME280;11334;36.986;-121.936;2023-01-26T05:42:52;102269.78;;;11.63;69.61
22333;BME280;11334;36.986;-121.936;2023-01-26T05:45:18;102276.75;;;11.64;69.00
22333;BME280;11334;36.986;-121.936;2023-01-26T05:47:46;102270.03;;;11.60;69.22
22333;BME280;11334;36.986;-121.936;2023-01-26T05:50:14;102268.47;;;11.57;69.73
22333;BME280;11334;36.986;-121.936;2023-01-26T05:52:44;102268.47;;;11.57;69.45
22333;BME280;11334;36.986;-121.936;2023-01-26T05:55:11;102263.78;;;11.50;69.89
22333;BME280;11334;36.986;-121.936;2023-01-26T05:57:38;102255.38;;;11.34;69.67
22333;BME280;11334;36.986;-121.936;2023-01-26T06:00:05;102270.78;;;11.40;69.79
22333;BME280;11334;36.986;-121.936;2023-01-26T06:02:32;102265.28;;;11.32;70.06
22333;BME280;11334;36.986;-121.936;2023-01-26T06:04:58;102282.03;;;11.43;69.69
22333;BME280;11334;36.986;-121.936;2023-01-26T06:07:24;102279.97;;;11.36;69.30
22333;BME280;11334;36.986;-121.936;2023-01-26T06:09:51;102287.59;;;11.30;70.05
22333;BME280;11334;36.986;-121.936;2023-01-26T06:12:21;102278.53;;;11.21;71.14
22333;BME280;11334;36.986;-121.936;2023-01-26T06:14:48;102283.47;;;11.26;70.96
22333;BME280;11334;36.986;-121.936;2023-01-26T06:17:16;102289.41;;;11.29;70.02
22333;BME280;11334;36.986;-121.936;2023-01-26T06:19:43;102271.94;;;11.16;70.54
22333;BME280;11334;36.986;-121.936;2023-01-26T06:22:10;102300.00;;;11.18;70.77
22333;BME280;11334;36.986;-121.936;2023-01-26T06:24:37;102306.41;;;11.16;71.32
22333;BME280;11334;36.986;-121.936;2023-01-26T06:27:05;102299.66;;;11.01;71.59
22333;BME280;11334;36.986;-121.936;2023-01-26T06:29:32;102303.06;;;10.92;72.05
22333;BME280;11334;36.986;-121.936;2023-01-26T06:31:59;102303.41;;;10.99;72.19
22333;BME280;11334;36.986;-121.936;2023-01-26T06:34:25;102305.00;;;10.90;72.39
22333;BME280;11334;36.986;-121.936;2023-01-26T06:36:52;102300.03;;;10.97;71.78
22333;BME280;11334;36.986;-121.936;2023-01-26T06:39:18;102292.56;;;10.91;71.92
22333;BME280;11334;36.986;-121.936;2023-01-26T06:41:44;102290.03;;;10.89;71.77
22333;BME280;11334;36.986;-121.936;2023-01-26T06:44:11;102298.72;;;10.80;72.38
22333;BME280;11334;36.986;-121.936;2023-01-26T06:46:38;102299.69;;;10.69;72.94
22333;BME280;11334;36.986;-121.936;2023-01-26T06:49:04;102300.16;;;10.63;73.30
22333;BME280;11334;36.986;-121.936;2023-01-26T06:52:02;102297.38;;;10.64;73.15
22333;BME280;11334;36.986;-121.936;2023-01-26T06:54:29;102291.47;;;10.61;73.37
22333;BME280;11334;36.986;-121.936;2023-01-26T06:56:55;102297.38;;;10.64;73.56
22333;BME280;11334;36.986;-121.936;2023-01-26T06:59:21;102297.50;;;10.63;73.13
22333;BME280;11334;36.986;-121.936;2023-01-26T07:01:48;102296.44;;;10.65;73.16
22333;BME280;11334;36.986;-121.936;2023-01-26T07:04:15;102292.44;;;10.49;74.38
22333;BME280;11334;36.986;-121.936;2023-01-26T07:06:43;102302.91;;;10.50;74.30
22333;BME280;11334;36.986;-121.936;2023-01-26T07:09:10;102299.53;;;10.59;74.19
22333;BME280;11334;36.986;-121.936;2023-01-26T07:11:36;102306.66;;;10.59;73.57
22333;BME280;11334;36.986;-121.936;2023-01-26T07:14:02;102307.34;;;10.50;73.80
22333;BME280;11334;36.986;-121.936;2023-01-26T07:16:28;102310.38;;;10.45;74.54
22333;BME280;11334;36.986;-121.936;2023-01-26T07:18:55;102315.09;;;10.53;73.89
22333;BME280;11334;36.986;-121.936;2023-01-26T07:21:22;102298.56;;;10.49;73.74
22333;BME280;11334;36.986;-121.936;2023-01-26T07:23:48;102299.53;;;10.48;73.57
22333;BME280;11334;36.986;-121.936;2023-01-26T07:26:17;102300.63;;;10.46;73.88
22333;BME280;11334;36.986;-121.936;2023-01-26T07:28:43;102300.22;;;10.40;74.71
22333;BME280;11334;36.986;-121.936;2023-01-26T07:31:10;102306.84;;;10.45;73.78
22333;BME280;11334;36.986;-121.936;2023-01-26T07:33:36;102315.88;;;10.32;74.06
22333;BME280;11334;36.986;-121.936;2023-01-26T07:36:03;102309.75;;;10.31;73.98
22333;BME280;11334;36.986;-121.936;2023-01-26T07:38:29;102313.47;;;10.29;74.17
22333;BME280;11334;36.986;-121.936;2023-01-26T07:40:56;102305.97;;;10.23;74.66
22333;BME280;11334;36.986;-121.936;2023-01-26T07:43:22;102303.81;;;10.28;74.49
22333;BME280;11334;36.986;-121.936;2023-01-26T07:45:51;102301.88;;;10.19;74.71
22333;BME280;11334;36.986;-121.936;2023-01-26T07:48:19;102292.69;;;10.01;75.73
22333;BME280;11334;36.986;-121.936;2023-01-26T07:50:45;102309.59;;;10.22;75.39
22333;BME280;11334;36.986;-121.936;2023-01-26T07:53:15;102303.81;;;10.17;74.37
22333;BME280;11334;36.986;-121.936;2023-01-26T07:55:45;102307.75;;;10.01;75.61
22333;BME280;11334;36.986;-121.936;2023-01-26T07:58:11;102301.88;;;10.08;75.25
22333;BME280;11334;36.986;-121.936;2023-01-26T08:00:38;102265.09;;;9.93;74.93
22333;BME280;11334;36.986;-121.936;2023-01-26T08:03:04;102295.34;;;10.01;75.49
22333;BME280;11334;36.986;-121.936;2023-01-26T08:05:31;102268.09;;;9.88;75.16
22333;BME280;11334;36.986;-121.936;2023-01-26T08:07:59;102293.88;;;9.97;75.11
22333;BME280;11334;36.986;-121.936;2023-01-26T08:10:27;102295.28;;;9.90;75.63
22333;BME280;11334;36.986;-121.936;2023-01-26T08:12:58;102288.31;;;9.89;75.08
22333;BME280;11334;36.986;-121.936;2023-01-26T08:15:26;102283.75;;;9.91;75.74
22333;BME280;11334;36.986;-121.936;2023-01-26T08:17:53;102282.59;;;9.83;75.27
22333;BME280;11334;36.986;-121.936;2023-01-26T08:20:19;102290.97;;;9.89;75.14
22333;BME280;11334;36.986;-121.936;2023-01-26T08:22:46;102282.72;;;9.81;75.48
22333;BME280;11334;36.986;-121.936;2023-01-26T08:25:12;102293.53;;;9.78;75.75
22333;BME280;11334;36.986;-121.936;2023-01-26T08:27:38;102293.41;;;9.80;75.84
22333;BME280;11334;36.986;-121.936;2023-01-26T08:30:05;102275.66;;;9.59;76.21
22333;BME280;11334;36.986;-121.936;2023-01-26T08:32:31;102286.56;;;9.54;77.13
22333;BME280;11334;36.986;-121.936;2023-01-26T08:34:58;102231.13;;;9.30;77.23
22333;BME280;11334;36.986;-121.936;2023-01-26T08:37:24;102283.78;;;9.56;76.89
22333;BME280;11334;36.986;-121.936;2023-01-26T08:39:50;102283.91;;;9.54;77.39
22333;BME280;11334;36.986;-121.936;2023-01-26T08:42:17;102295.00;;;9.59;76.90
22333;BME280;11334;36.986;-121.936;2023-01-26T08:44:43;102294.38;;;9.56;76.82
22333;BME280;11334;36.986;-121.936;2023-01-26T08:47:09;102294.38;;;9.56;76.71
22333;BME280;11334;36.986;-121.936;2023-01-26T08:49:35;102300.63;;;9.55;76.56
22333;BME280;11334;36.986;-121.936;2023-01-26T08:52:02;102297.00;;;9.56;76.39
22333;BME280;11334;36.986;-121.936;2023-01-26T08:54:28;102299.88;;;9.53;76.50
22333;BME280;11334;36.986;-121.936;2023-01-26T08:56:54;102308.28;;;9.47;77.11
22333;BME280;11334;36.986;-121.936;2023-01-26T08:59:20;102306.56;;;9.46;77.05
22333;BME280;11334;36.986;-121.936;2023-01-26T09:01:47;102312.38;;;9.51;76.75
22333;BME280;11334;36.986;-121.936;2023-01-26T09:04:14;102291.84;;;9.54;76.38
22333;BME280;11334;36.986;-121.936;2023-01-26T09:06:40;102304.56;;;9.49;76.15
22333;BME280;11334;36.986;-121.936;2023-01-26T09:09:06;102304.25;;;9.54;76.00
22333;BME280;11334;36.986;-121.936;2023-01-26T09:11:38;102314.94;;;9.52;75.54
22333;BME280;11334;36.986;-121.936;2023-01-26T09:14:05;102319.97;;;9.55;75.32
22333;BME280;11334;36.986;-121.936;2023-01-26T09:16:31;102325.75;;;9.49;75.38
22333;BME280;11334;36.986;-121.936;2023-01-26T09:18:57;102312.75;;;9.46;76.04
22333;BME280;11334;36.986;-121.936;2023-01-26T09:21:23;102314.66;;;9.45;75.82
22333;BME280;11334;36.986;-121.936;2023-01-26T09:23:50;102315.47;;;9.45;74.92
22333;BME280;11334;36.986;-121.936;2023-01-26T09:26:16;102321.75;;;9.44;75.04
22333;BME280;11334;36.986;-121.936;2023-01-26T09:28:42;102303.97;;;9.34;75.10
22333;BME280;11334;36.986;-121.936;2023-01-26T09:31:10;102306.63;;;9.34;75.12
22333;BME280;11334;36.986;-121.936;2023-01-26T09:33:36;102312.28;;;9.29;75.75
22333;BME280;11334;36.986;-121.936;2023-01-26T09:36:08;102312.69;;;9.23;75.99
22333;BME280;11334;36.986;-121.936;2023-01-26T09:38:35;102310.38;;;9.19;76.53
22333;BME280;11334;36.986;-121.936;2023-01-26T09:43:56;102309.53;;;9.18;77.00
22333;BME280;11334;36.986;-121.936;2023-01-26T09:49:25;102333.56;;;9.15;76.85
22333;BME280;11334;36.986;-121.936;2023-01-26T09:52:08;102327.66;;;9.12;76.74
22333;BME280;11334;36.986;-121.936;2023-01-26T09:57:15;102328.34;;;9.14;76.95
22333;BME280;11334;36.986;-121.936;2023-01-26T09:59:47;102309.53;;;9.18;76.60
22333;BME280;11334;36.986;-121.936;2023-01-26T10:02:32;102314.22;;;9.03;77.01
22333;BME280;11334;36.986;-121.936;2023-01-26T10:05:50;102316.03;;;9.02;76.91
22333;BME280;11334;36.986;-121.936;2023-01-26T10:08:18;102295.53;;;8.93;76.36
22333;BME280;11334;36.986;-121.936;2023-01-26T10:10:53;102314.22;;;9.03;76.58
22333;BME280;11334;36.986;-121.936;2023-01-26T10:13:20;102319.41;;;8.92;77.86
22333;BME280;11334;36.986;-121.936;2023-01-26T10:15:57;102315.75;;;8.82;78.16
22333;BME280;11334;36.986;-121.936;2023-01-26T10:18:29;102324.09;;;8.88;78.36
22333;BME280;11334;36.986;-121.936;2023-01-26T10:20:58;102302.31;;;8.85;77.31
22333;BME280;11334;36.986;-121.936;2023-01-26T10:23:29;102325.75;;;8.89;77.38
22333;BME280;11334;36.986;-121.936;2023-01-26T10:26:19;102329.97;;;8.92;77.09
22333;BME280;11334;36.986;-121.936;2023-01-26T10:28:49;102334.34;;;8.93;76.82
22333;BME280;11334;36.986;-121.936;2023-01-26T10:31:25;102318.56;;;8.91;76.48
22333;BME280;11334;36.986;-121.936;2023-01-26T10:33:55;102321.44;;;8.76;77.34
22333;BME280;11334;36.986;-121.936;2023-01-26T10:36:23;102320.16;;;8.82;78.05
22333;BME280;11334;36.986;-121.936;2023-01-26T10:38:50;102319.47;;;8.80;77.07
22333;BME280;11334;36.986;-121.936;2023-01-26T10:41:27;102324.53;;;8.70;78.13
22333;BME280;11334;36.986;-121.936;2023-01-26T10:43:59;102328.97;;;8.70;78.01
22333;BME280;11334;36.986;-121.936;2023-01-26T10:46:37;102324.75;;;8.67;78.32
22333;BME280;11334;36.986;-121.936;2023-01-26T10:52:06;102317.66;;;8.68;78.52
22333;BME280;11334;36.986;-121.936;2023-01-26T10:54:33;102317.22;;;8.61;77.37
22333;BME280;11334;36.986;-121.936;2023-01-26T10:57:21;102293.69;;;8.34;78.33
22333;BME280;11334;36.986;-121.936;2023-01-26T10:59:56;102328.97;;;8.45;78.63
22333;BME280;11334;36.986;-121.936;2023-01-26T11:02:27;102315.44;;;8.37;79.26
22333;BME280;11334;36.986;-121.936;2023-01-26T11:07:34;102311.94;;;8.37;78.17
22333;BME280;11334;36.986;-121.936;2023-01-26T11:12:51;102323.56;;;8.34;79.17
22333;BME280;11334;36.986;-121.936;2023-01-26T11:15:35;102321.66;;;8.36;79.13
22333;BME280;11334;36.986;-121.936;2023-01-26T11:23:56;102320.84;;;8.36;78.46
22333;BME280;11334;36.986;-121.936;2023-01-26T11:37:47;102330.84;;;8.31;78.90
22333;BME280;11334;36.986;-121.936;2023-01-26T11:49:21;102323.84;;;8.18;79.41
22333;BME280;11334;36.986;-121.936;2023-01-26T11:52:08;102335.91;;;8.21;79.24
22333;BME280;11334;36.986;-121.936;2023-01-26T11:57:54;102320.44;;;8.03;80.50
22333;BME280;11334;36.986;-121.936;2023-01-26T12:03:07;102322.78;;;8.08;79.55
22333;BME280;11334;36.986;-121.936;2023-01-26T12:05:43;102341.69;;;8.14;79.64
22333;BME280;11334;36.986;-121.936;2023-01-26T12:11:04;102352.81;;;8.05;79.32
22333;BME280;11334;36.986;-121.936;2023-01-26T12:20:38;102362.13;;;7.98;80.23
22333;BME280;11334;36.986;-121.936;2023-01-26T12:22:42;102365.28;;;8.03;79.26
22333;BME280;11334;36.986;-121.936;2023-01-26T12:25:34;102335.03;;;7.83;80.18
22333;BME280;11334;36.986;-121.936;2023-01-26T12:33:23;102373.97;;;7.79;81.25
22333;BME280;11334;36.986;-121.936;2023-01-26T12:41:26;102391.66;;;7.91;80.71
22333;BME280;11334;36.986;-121.936;2023-01-26T12:46:46;102395.97;;;7.92;80.65
22333;BME280;11334;36.986;-121.936;2023-01-26T12:49:41;102391.53;;;7.92;80.16
22333;BME280;11334;36.986;-121.936;2023-01-26T12:52:34;102397.84;;;7.90;80.51
22333;BME280;11334;36.986;-121.936;2023-01-26T12:55:28;102398.13;;;7.86;80.96
22333;BME280;11334;36.986;-121.936;2023-01-26T12:58:07;102400.34;;;7.79;80.77
22333;BME280;11334;36.986;-121.936;2023-01-26T13:00:37;102402.97;;;7.79;81.05
22333;BME280;11334;36.986;-121.936;2023-01-26T13:03:20;102393.19;;;7.81;81.83
22333;BME280;11334;36.986;-121.936;2023-01-26T13:10:59;102416.00;;;7.68;81.33
22333;BME280;11334;36.986;-121.936;2023-01-26T13:13:34;102413.06;;;7.73;80.90
22333;BME280;11334;36.986;-121.936;2023-01-26T13:18:54;102425.50;;;7.71;81.42
22333;BME280;11334;36.986;-121.936;2023-01-26T13:26:47;102403.50;;;7.58;81.09
22333;BME280;11334;36.986;-121.936;2023-01-26T13:29:33;102419.00;;;7.76;80.56
22333;BME280;11334;36.986;-121.936;2023-01-26T13:34:41;102421.41;;;7.53;81.40
22333;BME280;11334;36.986;-121.936;2023-01-26T13:37:13;102394.03;;;7.42;80.86
22333;BME280;11334;36.986;-121.936;2023-01-26T13:39:47;102428.94;;;7.59;80.80
22333;BME280;11334;36.986;-121.936;2023-01-26T13:42:23;102414.56;;;7.37;81.60
22333;BME280;11334;36.986;-121.936;2023-01-26T13:44:56;102434.50;;;7.55;81.48
22333;BME280;11334;36.986;-121.936;2023-01-26T13:47:28;102440.13;;;7.62;80.56
22333;BME280;11334;36.986;-121.936;2023-01-26T13:49:59;102445.31;;;7.64;79.85
22333;BME280;11334;36.986;-121.936;2023-01-26T13:52:26;102447.75;;;7.67;80.47
22333;BME280;11334;36.986;-121.936;2023-01-26T13:54:54;102446.59;;;7.71;79.72
22333;BME280;11334;36.986;-121.936;2023-01-26T13:57:28;102449.25;;;7.71;79.38
22333;BME280;11334;36.986;-121.936;2023-01-26T13:59:57;102432.97;;;7.51;80.09
22333;BME280;11334;36.986;-121.936;2023-01-26T14:02:29;102441.38;;;7.57;80.19
22333;BME280;11334;36.986;-121.936;2023-01-26T14:04:56;102439.97;;;7.52;80.96
22333;BME280;11334;36.986;-121.936;2023-01-26T14:07:39;102439.22;;;7.50;81.05
22333;BME280;11334;36.986;-121.936;2023-01-26T14:10:07;102437.81;;;7.44;82.16
22333;BME280;11334;36.986;-121.936;2023-01-26T14:12:41;102450.88;;;7.59;81.15
22333;BME280;11334;36.986;-121.936;2023-01-26T14:15:23;102466.97;;;7.55;80.25